Time;durP1;ratioP1;P1;durP2;ratioP2;P2;SDS_P1;SDS_P2;PMS_P1;PMS_P2;Temp;Humidity;BMP_temperature;BMP_pressure;BME280_temperature;BME280_humidity;BME280_pressure;Samples;Min_cycle;Max_cycle;Signal;HPM_P1;HPM_P2
2024/04/22 00:01:44;;;;;;;12.00;6.10;;;4.50;79.60;;;;;;5407368;26;20653;-73
2024/04/22 00:04:10;;;;;;;13.93;6.90;;;4.50;80.00;;;;;;5407378;26;20276;-73
2024/04/22 00:06:35;;;;;;;11.60;6.17;;;4.60;80.00;;;;;;5410724;26;20293;-73
2024/04/22 00:09:01;;;;;;;9.40;6.03;;;4.70;80.20;;;;;;5406220;26;20241;-74
2024/04/22 00:11:26;;;;;;;11.10;6.37;;;4.80;79.70;;;;;;5409922;26;20261;-74
2024/04/22 00:13:52;;;;;;;11.97;6.20;;;4.80;79.60;;;;;;5407104;26;20698;-75
2024/04/22 00:16:17;;;;;;;9.87;5.80;;;4.70;79.30;;;;;;5411005;26;20359;-74
2024/04/22 00:18:43;;;;;;;10.37;6.10;;;4.80;79.50;;;;;;5410957;26;20284;-74
2024/04/22 00:21:08;;;;;;;11.47;6.37;;;4.80;79.20;;;;;;5409133;26;20838;-73
2024/04/22 00:23:34;;;;;;;10.33;6.53;;;4.80;79.00;;;;;;5398143;26;20242;-72
2024/04/22 00:26:00;;;;;;;10.27;6.40;;;4.70;78.60;;;;;;5411693;26;20241;-73
2024/04/22 00:28:26;;;;;;;11.43;6.03;;;4.60;79.00;;;;;;5409067;26;20238;-72
2024/04/22 00:30:52;;;;;;;10.47;5.93;;;4.60;79.30;;;;;;5408097;26;21105;-73
2024/04/22 00:33:17;;;;;;;11.87;5.40;;;4.60;79.20;;;;;;5407514;26;20310;-74
2024/04/22 00:35:54;;;;;;;9.27;5.63;;;4.60;79.30;;;;;;5412262;26;20863;-72
2024/04/22 00:38:20;;;;;;;10.63;5.90;;;4.60;79.20;;;;;;5411203;26;20240;-74
2024/04/22 00:40:45;;;;;;;8.53;5.23;;;4.70;79.00;;;;;;5411756;26;20504;-72
2024/04/22 00:43:11;;;;;;;12.00;6.27;;;4.70;78.90;;;;;;5406764;26;20737;-73
2024/04/22 00:45:36;;;;;;;8.83;6.00;;;4.80;78.90;;;;;;5411989;26;20241;-74
2024/04/22 00:48:02;;;;;;;9.30;5.70;;;4.80;78.60;;;;;;5383241;26;20316;-73
2024/04/22 00:50:30;;;;;;;11.70;6.63;;;4.70;78.60;;;;;;5387090;26;21007;-73
2024/04/22 00:52:58;;;;;;;9.90;5.63;;;4.70;78.70;;;;;;5415825;26;20527;-73
2024/04/22 00:55:25;;;;;;;11.57;6.60;;;4.80;78.70;;;;;;5411319;26;20483;-75
2024/04/22 00:57:51;;;;;;;9.83;6.07;;;4.70;78.60;;;;;;5419302;26;20558;-74
2024/04/22 01:00:16;;;;;;;9.57;5.20;;;4.80;78.60;;;;;;5419569;26;20889;-73
2024/04/22 01:02:42;;;;;;;8.40;5.83;;;4.80;78.40;;;;;;5417922;26;20559;-73
2024/04/22 01:05:08;;;;;;;10.40;5.93;;;4.90;78.30;;;;;;5402135;26;20296;-73
2024/04/22 01:07:34;;;;;;;15.13;6.57;;;4.80;78.00;;;;;;5415042;26;20326;-73
2024/04/22 01:10:02;;;;;;;9.13;5.10;;;4.70;78.00;;;;;;5416034;26;20589;-73
2024/04/22 01:12:28;;;;;;;8.50;5.23;;;4.50;78.10;;;;;;5409993;26;20468;-73
2024/04/22 01:14:53;;;;;;;7.83;4.90;;;4.50;78.70;;;;;;5412523;26;20471;-73
2024/04/22 01:17:19;;;;;;;15.27;6.00;;;4.50;78.70;;;;;;5411196;26;20276;-72
2024/04/22 01:19:44;;;;;;;9.67;5.10;;;4.60;78.30;;;;;;5413448;26;20253;-73
2024/04/22 01:22:12;;;;;;;8.77;5.30;;;4.40;78.10;;;;;;5410557;26;20268;-74
2024/04/22 01:24:38;;;;;;;11.10;5.40;;;4.40;78.70;;;;;;5411836;26;20237;-73
2024/04/22 01:27:06;;;;;;;13.33;5.60;;;4.50;78.70;;;;;;5414720;26;20464;-73
2024/04/22 01:29:32;;;;;;;8.70;5.20;;;4.50;78.60;;;;;;5412763;26;20456;-73
2024/04/22 01:31:58;;;;;;;10.97;5.70;;;4.50;78.60;;;;;;5411098;26;20531;-73
2024/04/22 01:34:23;;;;;;;10.37;5.87;;;4.70;78.60;;;;;;5412621;26;20234;-72
2024/04/22 01:36:49;;;;;;;11.17;6.07;;;4.60;78.10;;;;;;5415203;26;20222;-74
2024/04/22 01:39:15;;;;;;;9.20;5.33;;;4.50;77.80;;;;;;5415353;26;20237;-72
2024/04/22 01:41:41;;;;;;;9.97;5.27;;;4.50;78.00;;;;;;5416807;26;20529;-74
2024/04/22 01:44:06;;;;;;;7.27;4.97;;;4.50;78.00;;;;;;5414040;26;20519;-72
2024/04/22 01:46:32;;;;;;;8.50;5.00;;;4.60;78.00;;;;;;5415206;26;20284;-74
2024/04/22 01:48:58;;;;;;;8.07;5.07;;;4.70;78.00;;;;;;5414505;26;20237;-73
2024/04/22 01:51:23;;;;;;;9.50;4.70;;;4.70;77.60;;;;;;5407315;26;20241;-72
2024/04/22 01:53:49;;;;;;;13.23;6.37;;;4.80;77.40;;;;;;5413123;26;20360;-74
2024/04/22 01:56:14;;;;;;;9.30;5.17;;;4.60;77.00;;;;;;5415572;26;20233;-71
2024/04/22 01:58:40;;;;;;;6.13;4.50;;;4.70;77.10;;;;;;5414296;26;20238;-72
2024/04/22 02:01:08;;;;;;;10.53;5.73;;;4.80;77.30;;;;;;5411879;26;20616;-73
2024/04/22 02:03:33;;;;;;;10.50;6.00;;;4.70;77.10;;;;;;5413166;26;20295;-72
2024/04/22 02:05:59;;;;;;;8.80;5.03;;;4.80;77.30;;;;;;5412885;26;21011;-72
2024/04/22 02:08:24;;;;;;;7.60;5.27;;;4.70;77.10;;;;;;5411806;26;20246;-73
2024/04/22 02:10:50;;;;;;;8.80;4.70;;;4.80;77.00;;;;;;5412402;26;20237;-74
2024/04/22 02:13:15;;;;;;;8.03;5.03;;;4.80;76.80;;;;;;5412153;26;20245;-74
2024/04/22 02:15:41;;;;;;;10.77;5.73;;;4.80;76.40;;;;;;5410885;26;20330;-72
2024/04/22 02:18:08;;;;;;;8.50;4.80;;;4.80;76.20;;;;;;5412274;26;20249;-73
2024/04/22 02:20:33;;;;;;;8.47;4.90;;;4.80;76.10;;;;;;5406802;26;20360;-73
2024/04/22 02:23:00;;;;;;;7.60;4.60;;;4.80;76.10;;;;;;5404321;26;20483;-72
2024/04/22 02:25:26;;;;;;;7.90;4.80;;;4.70;76.20;;;;;;5412429;26;20246;-73
2024/04/22 02:27:51;;;;;;;6.60;4.93;;;4.70;76.40;;;;;;5420389;26;20529;-74
2024/04/22 02:30:17;;;;;;;10.33;6.00;;;4.80;76.70;;;;;;5414386;26;20280;-74
2024/04/22 02:32:43;;;;;;;9.93;5.80;;;4.50;77.00;;;;;;5404468;26;20281;-73
2024/04/22 02:35:08;;;;;;;8.07;5.43;;;4.30;78.40;;;;;;5412949;26;20233;-73
2024/04/22 02:37:34;;;;;;;8.87;5.10;;;4.20;79.20;;;;;;5412865;26;20238;-73
2024/04/22 02:39:59;;;;;;;11.07;5.80;;;4.20;79.70;;;;;;5414233;26;20237;-74
2024/04/22 02:42:25;;;;;;;11.80;6.23;;;4.10;79.60;;;;;;5411679;26;20241;-75
2024/04/22 02:44:50;;;;;;;7.87;5.00;;;4.20;79.70;;;;;;5415833;26;20303;-73
2024/04/22 02:47:16;;;;;;;9.13;5.40;;;4.20;79.70;;;;;;5416572;26;20230;-74
2024/04/22 02:49:41;;;;;;;10.57;5.53;;;4.30;79.70;;;;;;5413170;26;20245;-73
2024/04/22 02:52:07;;;;;;;11.60;5.53;;;4.40;79.60;;;;;;5403559;26;20241;-72
2024/04/22 02:54:33;;;;;;;7.40;4.60;;;4.40;79.50;;;;;;5411403;26;21015;-72
2024/04/22 02:56:59;;;;;;;6.20;4.57;;;4.40;78.70;;;;;;5413812;26;20492;-72
2024/04/22 02:59:24;;;;;;;7.17;4.60;;;4.50;78.30;;;;;;5412915;26;20487;-73
2024/04/22 03:01:50;;;;;;;7.33;4.70;;;4.60;78.30;;;;;;5409522;26;20617;-72
2024/04/22 03:04:16;;;;;;;7.73;4.27;;;4.50;78.00;;;;;;5410062;26;20249;-72
2024/04/22 03:06:41;;;;;;;7.70;4.67;;;4.50;77.80;;;;;;5413358;26;20746;-72
2024/04/22 03:09:07;;;;;;;13.40;5.17;;;4.50;78.00;;;;;;5412440;26;20365;-73
2024/04/22 03:11:33;;;;;;;7.97;5.00;;;4.60;77.80;;;;;;5410880;26;20241;-73
2024/04/22 03:14:00;;;;;;;7.80;5.27;;;4.50;77.60;;;;;;5417231;26;20301;-71
2024/04/22 03:16:25;;;;;;;9.73;5.30;;;4.50;77.70;;;;;;5412972;26;20341;-73
2024/04/22 03:18:51;;;;;;;7.77;4.40;;;4.50;77.60;;;;;;5413641;26;20817;-75
2024/04/22 03:21:16;;;;;;;9.60;5.13;;;4.50;77.30;;;;;;5407899;26;20284;-75
2024/04/22 03:23:42;;;;;;;7.27;4.33;;;4.40;77.10;;;;;;5403436;26;20299;-74
2024/04/22 03:26:07;;;;;;;9.13;4.67;;;4.40;77.30;;;;;;5412962;26;20337;-73
2024/04/22 03:28:39;;;;;;;9.13;5.13;;;4.30;77.30;;;;;;5412169;26;21022;-74
2024/04/22 03:31:04;;;;;;;7.60;4.97;;;4.20;77.40;;;;;;5409779;26;20245;-72
2024/04/22 03:33:30;;;;;;;6.90;4.33;;;4.30;77.70;;;;;;5407870;26;20463;-74
2024/04/22 03:36:02;;;;;;;8.27;5.03;;;4.10;77.60;;;;;;5413035;26;20264;-72
2024/04/22 03:38:28;;;;;;;7.73;4.80;;;4.10;77.60;;;;;;5411567;26;20587;-74
2024/04/22 03:40:54;;;;;;;7.80;5.00;;;4.10;77.70;;;;;;5404386;26;20471;-73
2024/04/22 03:43:20;;;;;;;7.63;4.37;;;4.30;77.70;;;;;;5401817;26;20471;-76
2024/04/22 03:49:50;;;;;;;7.50;4.60;;;4.20;77.30;;;;;;5418352;26;20726;-72
2024/04/22 03:51:20;;;;;;;6.57;4.10;;;4.30;77.30;;;;;;5362771;26;20495;-71
2024/04/22 03:53:46;;;;;;;7.47;4.60;;;4.40;77.10;;;;;;5421037;26;20467;-73
2024/04/22 03:56:11;;;;;;;8.10;4.70;;;4.40;77.00;;;;;;5427725;26;20295;-72
2024/04/22 03:58:37;;;;;;;8.20;5.13;;;4.20;77.00;;;;;;5411276;26;20271;-73
2024/04/22 04:01:03;;;;;;;8.10;5.20;;;4.10;77.40;;;;;;5411305;26;20229;-70
2024/04/22 04:03:28;;;;;;;8.20;4.80;;;4.10;77.60;;;;;;5406009;26;20301;-70
2024/04/22 04:05:54;;;;;;;7.17;4.90;;;4.00;78.00;;;;;;5413905;26;20233;-72
2024/04/22 04:08:19;;;;;;;8.63;4.70;;;4.10;78.30;;;;;;5413070;26;20229;-73
2024/04/22 04:10:46;;;;;;;7.77;4.63;;;4.10;78.30;;;;;;5412604;26;20233;-73
2024/04/22 04:13:12;;;;;;;8.53;5.10;;;4.00;78.40;;;;;;5402603;26;20246;-72
2024/04/22 04:15:38;;;;;;;8.63;5.00;;;3.90;78.60;;;;;;5410942;26;20519;-73
2024/04/22 04:18:04;;;;;;;10.33;5.20;;;3.80;78.70;;;;;;5408855;26;20509;-72
2024/04/22 04:20:29;;;;;;;9.37;5.50;;;3.90;79.00;;;;;;5403834;26;20833;-73
2024/04/22 04:22:55;;;;;;;7.10;4.43;;;3.90;79.00;;;;;;5412165;26;20478;-74
2024/04/22 04:25:20;;;;;;;7.50;4.23;;;3.90;79.00;;;;;;5415799;26;20237;-73
2024/04/22 04:27:46;;;;;;;8.10;4.93;;;3.90;79.00;;;;;;5415465;26;21115;-74
2024/04/22 04:30:11;;;;;;;6.93;4.67;;;3.90;78.90;;;;;;5415778;26;20299;-74
2024/04/22 04:32:37;;;;;;;7.97;5.00;;;3.90;78.90;;;;;;5413336;26;20263;-73
2024/04/22 04:35:03;;;;;;;9.40;5.20;;;3.90;78.90;;;;;;5415605;26;20238;-72
2024/04/22 04:37:29;;;;;;;9.87;6.07;;;3.80;78.90;;;;;;5417683;26;20234;-73
2024/04/22 04:39:56;;;;;;;9.13;5.10;;;3.60;79.00;;;;;;5414417;26;20459;-73
2024/04/22 04:42:22;;;;;;;7.60;4.53;;;3.50;79.50;;;;;;5411207;26;20318;-74
2024/04/22 04:44:47;;;;;;;10.13;5.20;;;3.50;79.50;;;;;;5414114;26;20467;-74
2024/04/22 04:47:13;;;;;;;9.53;5.50;;;3.50;79.60;;;;;;5410001;26;20591;-72
2024/04/22 04:49:38;;;;;;;6.93;4.80;;;3.50;79.60;;;;;;5416353;26;20280;-74
2024/04/22 04:52:04;;;;;;;9.10;5.67;;;3.60;79.60;;;;;;5412804;26;20333;-73
2024/04/22 04:54:30;;;;;;;12.73;5.60;;;3.60;79.50;;;;;;5404693;26;20268;-74
2024/04/22 04:56:55;;;;;;;9.50;5.40;;;3.60;79.30;;;;;;5415173;26;20475;-74
2024/04/22 04:59:21;;;;;;;9.37;5.00;;;3.50;79.30;;;;;;5409336;26;20237;-73
2024/04/22 05:01:47;;;;;;;9.90;5.20;;;3.50;79.30;;;;;;5419833;26;20257;-74
2024/04/22 05:04:12;;;;;;;9.27;5.20;;;3.60;79.20;;;;;;5380032;26;20249;-74
2024/04/22 05:06:38;;;;;;;10.73;5.40;;;3.60;79.00;;;;;;5420447;26;20342;-73
2024/04/22 05:09:03;;;;;;;9.30;5.50;;;3.50;78.90;;;;;;5410371;26;20847;-72
2024/04/22 05:11:29;;;;;;;9.50;5.53;;;3.40;78.90;;;;;;5413444;26;20234;-72
2024/04/22 05:13:55;;;;;;;8.33;4.83;;;3.40;78.70;;;;;;5412129;26;20253;-75
2024/04/22 05:16:20;;;;;;;7.80;4.83;;;3.40;78.90;;;;;;5413547;26;20938;-72
2024/04/22 05:18:46;;;;;;;10.57;5.20;;;3.40;78.70;;;;;;5419459;26;20467;-72
2024/04/22 05:21:11;;;;;;;8.90;5.77;;;3.50;78.90;;;;;;5416264;26;20257;-74
2024/04/22 05:23:37;;;;;;;11.07;4.90;;;3.50;78.60;;;;;;5417646;26;20237;-72
2024/04/22 05:26:03;;;;;;;7.43;4.30;;;3.50;78.10;;;;;;5415671;26;20884;-74
2024/04/22 05:28:28;;;;;;;10.40;5.10;;;3.50;78.10;;;;;;5417322;26;20319;-74
2024/04/22 05:30:54;;;;;;;9.83;4.47;;;3.50;77.70;;;;;;5416504;26;20246;-75
2024/04/22 05:36:14;;;;;;;10.40;5.10;;;3.40;77.40;;;;;;5416401;26;20276;-75
2024/04/22 05:38:42;;;;;;;15.68;5.03;;;3.40;77.00;;;;;;5409995;26;20268;-73
2024/04/22 05:41:08;;;;;;;7.40;4.60;;;3.50;76.70;;;;;;5411033;26;20238;-74
2024/04/22 05:43:34;;;;;;;8.07;4.90;;;3.50;76.50;;;;;;5413560;26;20459;-71
2024/04/22 05:46:00;;;;;;;6.73;4.57;;;3.50;76.50;;;;;;5415518;26;20464;-71
2024/04/22 05:48:26;;;;;;;7.47;4.33;;;3.60;76.20;;;;;;5413379;26;20523;-70
2024/04/22 05:50:51;;;;;;;10.10;4.40;;;3.60;75.40;;;;;;5412687;26;20758;-69
2024/04/22 05:53:17;;;;;;;8.10;4.73;;;3.60;74.80;;;;;;5405256;26;20338;-72
2024/04/22 05:55:43;;;;;;;6.60;4.37;;;3.60;74.30;;;;;;5414660;26;20773;-71
2024/04/22 05:58:09;;;;;;;7.77;4.47;;;3.70;74.00;;;;;;5406536;26;20238;-70
2024/04/22 06:00:34;;;;;;;8.70;5.10;;;3.60;73.30;;;;;;5414873;26;20459;-70
2024/04/22 06:03:00;;;;;;;9.37;5.03;;;3.40;73.20;;;;;;5405689;26;20273;-72
2024/04/22 06:05:27;;;;;;;10.40;4.30;;;3.40;73.60;;;;;;5413752;26;20242;-71
2024/04/22 06:07:53;;;;;;;9.57;4.30;;;3.50;73.50;;;;;;5414537;26;20338;-71
2024/04/22 06:10:18;;;;;;;9.53;4.40;;;3.60;73.30;;;;;;5411777;26;20475;-71
2024/04/22 06:12:44;;;;;;;10.80;5.23;;;3.80;72.90;;;;;;5408927;26;20303;-70
2024/04/22 06:15:09;;;;;;;7.87;4.77;;;3.80;72.00;;;;;;5412812;26;20253;-70
2024/04/22 06:17:35;;;;;;;10.47;5.30;;;3.70;71.60;;;;;;5413809;26;20750;-71
2024/04/22 06:20:01;;;;;;;9.33;5.00;;;3.70;72.10;;;;;;5414419;26;20280;-73
2024/04/22 06:22:26;;;;;;;7.50;5.00;;;3.70;72.00;;;;;;5400134;26;20284;-72
2024/04/22 06:24:52;;;;;;;6.10;4.00;;;3.70;72.10;;;;;;5413496;26;20237;-73
2024/04/22 06:27:17;;;;;;;7.77;4.43;;;3.80;72.40;;;;;;5404694;26;20233;-71
2024/04/22 06:29:43;;;;;;;7.97;4.70;;;4.00;72.40;;;;;;5416084;26;21066;-71
2024/04/22 06:32:08;;;;;;;11.87;4.70;;;4.20;72.00;;;;;;5406778;26;20238;-69
2024/04/22 06:34:34;;;;;;;8.03;4.33;;;4.10;71.10;;;;;;5419053;26;20245;-71
2024/04/22 06:37:00;;;;;;;8.40;4.90;;;4.10;71.10;;;;;;5418177;26;20238;-71
2024/04/22 06:39:26;;;;;;;8.33;4.87;;;4.20;71.30;;;;;;5418738;26;20796;-73
2024/04/22 06:41:51;;;;;;;8.80;4.50;;;4.00;71.10;;;;;;5382188;26;20242;-70
2024/04/22 06:44:17;;;;;;;8.00;4.97;;;3.80;71.70;;;;;;5414903;26;20582;-71
2024/04/22 06:46:42;;;;;;;8.80;4.77;;;3.70;72.30;;;;;;5408154;26;20721;-71
2024/04/22 06:49:08;;;;;;;8.50;4.90;;;3.80;72.60;;;;;;5423915;26;20278;-75
2024/04/22 06:51:34;;;;;;;6.70;4.53;;;3.60;72.00;;;;;;5411276;26;20237;-71
2024/04/22 06:53:59;;;;;;;8.97;4.27;;;3.70;72.60;;;;;;5413913;26;20229;-71
2024/04/22 06:56:26;;;;;;;8.00;4.80;;;4.00;72.40;;;;;;5410444;26;20314;-73
2024/04/22 06:58:52;;;;;;;7.73;4.60;;;4.10;72.00;;;;;;5414653;26;20699;-70
2024/04/22 07:01:17;;;;;;;8.10;4.27;;;4.20;71.40;;;;;;5404672;26;20483;-71
2024/04/22 07:03:43;;;;;;;6.53;4.00;;;4.20;71.00;;;;;;5410342;26;20323;-70
2024/04/22 07:06:11;;;;;;;6.67;4.73;;;4.40;70.80;;;;;;5416049;26;20234;-68
2024/04/22 07:08:37;;;;;;;9.00;4.87;;;4.50;70.80;;;;;;5415396;26;20276;-72
2024/04/22 07:11:03;;;;;;;8.27;4.20;;;4.80;70.40;;;;;;5413341;26;20487;-72
2024/04/22 07:13:29;;;;;;;9.23;5.30;;;4.90;69.80;;;;;;5414311;26;20298;-72
2024/04/22 07:15:54;;;;;;;10.33;4.30;;;4.80;69.70;;;;;;5411720;26;20279;-67
2024/04/22 07:18:20;;;;;;;11.17;5.10;;;4.70;69.80;;;;;;5411498;26;20345;-72
2024/04/22 07:20:45;;;;;;;8.60;4.60;;;4.80;69.80;;;;;;5390069;26;20238;-73
2024/04/22 07:23:11;;;;;;;7.87;4.90;;;4.80;69.20;;;;;;5410367;26;20242;-73
2024/04/22 07:25:36;;;;;;;13.27;4.77;;;4.60;69.40;;;;;;5413416;26;20338;-71
2024/04/22 07:28:02;;;;;;;7.97;4.57;;;4.40;69.80;;;;;;5430851;26;20232;-71
2024/04/22 07:30:28;;;;;;;10.00;4.80;;;4.40;69.90;;;;;;5415188;26;20264;-70
2024/04/22 07:32:54;;;;;;;8.50;4.60;;;4.50;69.90;;;;;;5406762;26;20747;-72
2024/04/22 07:35:20;;;;;;;8.67;5.03;;;4.60;69.80;;;;;;5407814;26;21067;-71
2024/04/22 07:37:47;;;;;;;8.90;4.57;;;4.70;69.70;;;;;;5411678;26;20249;-70
2024/04/22 07:40:18;;;;;;;5.60;4.20;;;4.70;69.40;;;;;;5410142;26;20530;-71
2024/04/22 07:42:47;;;;;;;11.67;4.50;;;4.60;69.50;;;;;;5408545;26;20524;-70
2024/04/22 07:45:14;;;;;;;7.90;4.83;;;4.60;69.70;;;;;;5417008;26;21063;-69
2024/04/22 07:47:43;;;;;;;10.03;4.50;;;4.70;69.80;;;;;;5414760;26;21122;-72
2024/04/22 07:50:10;;;;;;;10.77;4.40;;;4.70;69.70;;;;;;5415775;26;20888;-70
2024/04/22 07:52:37;;;;;;;6.23;4.17;;;4.70;69.70;;;;;;5394771;26;20514;-72
2024/04/22 07:55:04;;;;;;;8.27;4.10;;;4.70;69.20;;;;;;5406135;26;20467;-71
2024/04/22 07:57:30;;;;;;;13.97;5.07;;;4.60;69.50;;;;;;5413905;26;20610;-71
2024/04/22 07:59:56;;;;;;;7.17;4.10;;;4.70;69.40;;;;;;5413204;26;20464;-71
2024/04/22 08:02:22;;;;;;;7.27;4.07;;;4.70;68.50;;;;;;5406356;26;20525;-70
2024/04/22 08:04:48;;;;;;;11.27;4.50;;;5.00;68.20;;;;;;5410521;26;20534;-69
2024/04/22 08:07:17;;;;;;;7.00;4.00;;;5.20;67.30;;;;;;5408763;26;20245;-69
2024/04/22 08:09:43;;;;;;;6.50;3.77;;;5.20;66.70;;;;;;5416944;26;20585;-71
2024/04/22 08:12:11;;;;;;;6.03;3.33;;;5.40;66.60;;;;;;5410760;26;20861;-71
2024/04/22 08:14:36;;;;;;;8.50;3.50;;;5.50;66.70;;;;;;5415728;26;20594;-71
2024/04/22 08:17:03;;;;;;;9.83;3.40;;;5.60;66.00;;;;;;5410861;26;20813;-71
2024/04/22 08:19:28;;;;;;;4.23;2.97;;;5.50;66.10;;;;;;5416628;26;20230;-70
2024/04/22 08:21:54;;;;;;;4.80;2.87;;;5.60;65.30;;;;;;5415014;26;20870;-72
2024/04/22 08:24:21;;;;;;;6.00;3.20;;;5.80;64.40;;;;;;5408016;26;20230;-71
2024/04/22 08:26:47;;;;;;;6.90;3.13;;;5.60;64.50;;;;;;5412450;26;20250;-71
2024/04/22 08:29:15;;;;;;;3.47;2.57;;;5.50;64.70;;;;;;5411492;26;20915;-73
2024/04/22 08:31:42;;;;;;;5.57;3.20;;;5.70;65.00;;;;;;5410143;26;20594;-70
2024/04/22 08:34:08;;;;;;;4.37;2.87;;;5.60;64.20;;;;;;5407252;26;20471;-71
2024/04/22 08:36:33;;;;;;;7.13;3.00;;;5.70;64.50;;;;;;5412485;26;20543;-72
2024/04/22 08:38:59;;;;;;;5.77;2.97;;;5.80;64.20;;;;;;5408318;26;20375;-69
2024/04/22 08:41:25;;;;;;;3.70;2.60;;;5.90;64.50;;;;;;5406667;26;20295;-72
2024/04/22 08:43:51;;;;;;;10.30;3.83;;;6.00;63.90;;;;;;5411853;26;20237;-70
2024/04/22 08:46:17;;;;;;;5.17;3.43;;;6.20;63.70;;;;;;5412788;26;20538;-72
2024/04/22 08:48:43;;;;;;;9.83;3.57;;;6.30;64.10;;;;;;5403725;26;20622;-71
2024/04/22 08:51:09;;;;;;;5.50;3.50;;;6.50;64.20;;;;;;5409953;26;20471;-73
2024/04/22 08:53:34;;;;;;;5.23;2.87;;;6.80;64.10;;;;;;5398787;26;20233;-72
2024/04/22 08:56:00;;;;;;;5.63;3.67;;;7.00;63.10;;;;;;5413133;26;20237;-71
2024/04/22 08:58:26;;;;;;;5.23;3.03;;;7.10;62.50;;;;;;5414654;26;20666;-72
2024/04/22 09:00:51;;;;;;;3.63;2.83;;;7.20;62.30;;;;;;5404202;26;20542;-70
2024/04/22 09:03:17;;;;;;;7.53;3.80;;;7.30;61.30;;;;;;5404757;26;20349;-72
2024/04/22 09:05:43;;;;;;;5.13;3.00;;;7.40;61.50;;;;;;5416249;26;20726;-71
2024/04/22 09:08:09;;;;;;;5.40;3.07;;;7.50;60.60;;;;;;5424055;26;20245;-72
2024/04/22 09:10:37;;;;;;;5.60;3.50;;;7.50;60.90;;;;;;5414192;26;20233;-73
2024/04/22 09:13:03;;;;;;;4.27;2.83;;;7.70;60.40;;;;;;5409776;26;20479;-72
2024/04/22 09:15:28;;;;;;;6.40;3.10;;;7.80;61.00;;;;;;5417306;26;20475;-73
2024/04/22 09:17:55;;;;;;;4.80;3.03;;;8.10;60.30;;;;;;5416637;26;20589;-71
2024/04/22 09:20:24;;;;;;;8.10;3.30;;;8.30;59.60;;;;;;5416571;26;20226;-71
2024/04/22 09:22:50;;;;;;;7.07;3.50;;;8.30;58.90;;;;;;5410141;26;20467;-71
2024/04/22 09:25:17;;;;;;;8.13;3.67;;;8.30;58.80;;;;;;5414608;26;21078;-70
2024/04/22 09:27:47;;;;;;;6.07;3.37;;;8.10;59.60;;;;;;5417424;26;20466;-73
2024/04/22 09:30:14;;;;;;;4.70;3.10;;;8.10;59.70;;;;;;5416585;26;20485;-71
2024/04/22 09:32:44;;;;;;;6.33;3.40;;;8.20;59.60;;;;;;5413511;26;20474;-73
2024/04/22 09:35:14;;;;;;;8.30;4.10;;;8.30;59.30;;;;;;5417535;26;20459;-70
2024/04/22 09:37:42;;;;;;;5.63;3.33;;;8.10;58.50;;;;;;5419813;26;20523;-73
2024/04/22 09:40:12;;;;;;;5.73;3.10;;;7.90;58.10;;;;;;5413663;26;20842;-73
2024/04/22 09:42:40;;;;;;;4.67;3.20;;;7.80;58.40;;;;;;5408433;26;21007;-73
2024/04/22 09:45:08;;;;;;;5.97;3.60;;;8.00;58.40;;;;;;5415145;26;20508;-74
2024/04/22 09:47:37;;;;;;;4.20;3.10;;;8.20;58.20;;;;;;5415934;26;20506;-72
2024/04/22 09:50:04;;;;;;;5.30;3.60;;;8.30;58.00;;;;;;5414131;26;20460;-73
2024/04/22 09:52:32;;;;;;;9.90;3.37;;;8.40;57.80;;;;;;5410394;26;20471;-73
2024/04/22 09:55:00;;;;;;;6.77;3.40;;;8.10;57.80;;;;;;5414489;26;20523;-70
2024/04/22 09:57:28;;;;;;;7.83;3.90;;;8.00;58.20;;;;;;5425900;26;20467;-72
2024/04/22 09:59:54;;;;;;;5.13;3.17;;;8.10;58.20;;;;;;5418995;26;20978;-70
2024/04/22 10:02:20;;;;;;;8.13;3.60;;;8.00;57.80;;;;;;5408113;26;20464;-72
2024/04/22 10:04:46;;;;;;;7.47;3.97;;;7.90;58.70;;;;;;5411994;26;21051;-70
2024/04/22 10:07:13;;;;;;;7.27;3.47;;;7.90;58.20;;;;;;5415526;26;20455;-72
2024/04/22 10:09:38;;;;;;;4.33;3.33;;;7.50;58.50;;;;;;5415748;26;20369;-72
2024/04/22 10:12:08;;;;;;;6.33;3.60;;;7.60;59.20;;;;;;5405341;26;20913;-71
2024/04/22 10:14:34;;;;;;;4.83;2.90;;;7.40;58.50;;;;;;5406030;26;20299;-71
2024/04/22 10:17:01;;;;;;;5.70;3.33;;;7.50;58.90;;;;;;5416395;26;20517;-73
2024/04/22 10:19:30;;;;;;;6.83;3.37;;;7.60;58.50;;;;;;5414647;26;20287;-71
2024/04/22 10:22:06;;;;;;;6.70;3.50;;;7.80;58.40;;;;;;5413061;26;20495;-73
2024/04/22 10:24:39;;;;;;;5.17;2.90;;;7.90;57.60;;;;;;5413200;26;20480;-72
2024/04/22 10:27:09;;;;;;;5.10;3.20;;;7.80;56.90;;;;;;5409538;26;20651;-72
2024/04/22 10:29:35;;;;;;;4.17;2.80;;;8.00;57.40;;;;;;5416146;26;20463;-73
2024/04/22 10:32:01;;;;;;;7.40;3.33;;;8.00;55.30;;;;;;5412681;26;20471;-71
2024/04/22 10:34:28;;;;;;;3.57;2.63;;;8.30;55.40;;;;;;5416880;26;20474;-71
2024/04/22 10:36:54;;;;;;;4.73;2.50;;;8.80;54.10;;;;;;5420391;26;20829;-72
2024/04/22 10:39:21;;;;;;;4.83;3.40;;;9.10;51.80;;;;;;5414583;26;20471;-71
2024/04/22 10:41:47;;;;;;;4.03;2.40;;;9.60;50.90;;;;;;5409923;26;20854;-72
2024/04/22 10:44:12;;;;;;;4.50;3.10;;;10.10;49.40;;;;;;5414215;26;20463;-71
2024/04/22 10:46:38;;;;;;;5.80;2.87;;;10.50;49.10;;;;;;5414122;26;20819;-72
2024/04/22 10:49:05;;;;;;;3.63;2.40;;;10.80;47.90;;;;;;5415017;26;20268;-71
2024/04/22 10:51:31;;;;;;;5.27;2.40;;;11.00;46.20;;;;;;5409983;26;20536;-71
2024/04/22 10:53:57;;;;;;;3.63;2.53;;;10.80;45.50;;;;;;5420142;26;20576;-70
2024/04/22 10:56:22;;;;;;;4.50;2.40;;;10.10;46.90;;;;;;5411240;26;20467;-72
2024/04/22 10:58:49;;;;;;;5.07;3.07;;;10.00;47.80;;;;;;5421031;26;20248;-72
2024/04/22 11:01:15;;;;;;;6.60;2.70;;;9.90;48.50;;;;;;5411484;26;20242;-71
2024/04/22 11:03:41;;;;;;;7.63;3.50;;;10.00;48.60;;;;;;5409633;26;20526;-72
2024/04/22 11:06:11;;;;;;;6.27;2.90;;;10.30;48.90;;;;;;5413721;26;20330;-73
2024/04/22 11:08:39;;;;;;;5.07;3.17;;;9.70;49.80;;;;;;5408146;26;20586;-73
2024/04/22 11:11:05;;;;;;;5.27;3.43;;;9.60;50.70;;;;;;5410864;26;20451;-71
2024/04/22 11:13:33;;;;;;;4.87;2.90;;;9.30;49.90;;;;;;5404195;26;20483;-69
2024/04/22 11:16:08;;;;;;;6.87;3.00;;;8.90;50.60;;;;;;5421026;26;20467;-74
2024/04/22 11:18:34;;;;;;;7.00;3.30;;;8.80;51.00;;;;;;5407718;26;20468;-72
2024/04/22 11:21:00;;;;;;;4.70;3.00;;;8.70;52.00;;;;;;5409859;26;20468;-73
2024/04/22 11:23:26;;;;;;;4.93;2.60;;;8.80;51.80;;;;;;5394892;26;20475;-71
2024/04/22 11:25:52;;;;;;;5.10;3.20;;;8.50;52.90;;;;;;5412128;26;20726;-72
2024/04/22 11:28:18;;;;;;;5.00;2.93;;;8.90;51.60;;;;;;5409184;26;20237;-72
2024/04/22 11:30:44;;;;;;;4.97;2.87;;;8.80;50.20;;;;;;5412022;26;20463;-71
2024/04/22 11:33:22;;;;;;;3.13;2.53;;;8.40;50.20;;;;;;5402797;26;20880;-70
2024/04/22 11:35:51;;;;;;;4.53;2.40;;;8.80;50.20;;;;;;5412103;26;20514;-73
2024/04/22 11:38:17;;;;;;;3.33;2.60;;;9.30;49.30;;;;;;5412276;26;20531;-71
2024/04/22 11:40:44;;;;;;;4.30;3.33;;;9.50;48.20;;;;;;5412700;26;20467;-72
2024/04/22 11:43:11;;;;;;;5.93;2.67;;;8.90;48.30;;;;;;5403702;26;20555;-71
2024/04/22 11:45:36;;;;;;;2.80;2.20;;;9.00;46.90;;;;;;5410991;26;21008;-71
2024/04/22 11:48:02;;;;;;;5.30;3.10;;;9.00;48.20;;;;;;5418186;26;20516;-72
2024/04/22 11:50:28;;;;;;;7.23;2.53;;;8.90;47.80;;;;;;5410915;26;20335;-72
2024/04/22 11:52:53;;;;;;;4.13;2.77;;;9.40;48.60;;;;;;5406052;26;20832;-72
2024/04/22 11:55:19;;;;;;;5.80;2.60;;;9.80;48.70;;;;;;5413175;26;20288;-72
2024/04/22 11:57:45;;;;;;;4.90;2.93;;;9.10;50.70;;;;;;5416337;26;20279;-72
2024/04/22 12:00:11;;;;;;;4.43;2.77;;;9.10;50.70;;;;;;5415709;26;20304;-70
2024/04/22 12:02:36;;;;;;;3.70;2.30;;;9.30;51.40;;;;;;5409635;26;20370;-71
2024/04/22 12:05:07;;;;;;;6.30;2.30;;;9.20;50.90;;;;;;5412027;26;20350;-71
2024/04/22 12:07:34;;;;;;;10.20;2.83;;;9.30;51.80;;;;;;5405597;26;21189;-71
2024/04/22 12:09:59;;;;;;;3.60;2.33;;;9.50;51.40;;;;;;5413209;26;21078;-71
2024/04/22 12:12:25;;;;;;;4.27;2.80;;;9.80;50.60;;;;;;5397414;26;20469;-73
2024/04/22 12:14:50;;;;;;;4.03;2.63;;;9.90;49.50;;;;;;5412968;26;20249;-72
2024/04/22 12:17:17;;;;;;;3.83;2.63;;;8.70;50.30;;;;;;5414332;26;20279;-71
2024/04/22 12:19:43;;;;;;;4.47;2.73;;;8.60;51.00;;;;;;5408981;26;20241;-71
2024/04/22 12:22:08;;;;;;;3.57;2.40;;;8.80;49.50;;;;;;5376835;26;20475;-74
2024/04/22 12:24:34;;;;;;;4.47;2.40;;;8.80;50.20;;;;;;5409203;26;20274;-72
2024/04/22 12:26:59;;;;;;;8.50;2.40;;;9.00;49.80;;;;;;5413115;26;20267;-74
2024/04/22 12:29:25;;;;;;;3.93;2.33;;;8.70;49.80;;;;;;5422505;26;20237;-72
2024/04/22 12:31:51;;;;;;;4.37;2.43;;;8.80;49.00;;;;;;5409013;26;20272;-71
2024/04/22 12:34:16;;;;;;;3.33;2.50;;;8.90;49.30;;;;;;5409315;26;20595;-73
2024/04/22 12:36:42;;;;;;;4.63;1.97;;;8.50;50.10;;;;;;5409049;26;20831;-71
2024/04/22 12:39:07;;;;;;;3.93;2.03;;;8.50;50.90;;;;;;5407270;26;20277;-72
2024/04/22 12:41:33;;;;;;;8.97;3.00;;;9.10;50.90;;;;;;5409040;26;20589;-72
2024/04/22 12:43:58;;;;;;;7.63;2.60;;;9.50;49.80;;;;;;5410227;26;20245;-72
2024/04/22 12:46:24;;;;;;;4.10;2.70;;;9.60;50.20;;;;;;5411843;26;20250;-72
2024/04/22 12:51:34;;;;;;;4.10;2.70;;;10.30;50.20;;;;;;5411594;26;20619;-72
2024/04/22 12:54:00;;;;;;;5.70;3.00;;;10.30;50.20;;;;;;5411338;26;20479;-73
2024/04/22 12:56:25;;;;;;;6.00;4.20;;;9.50;52.90;;;;;;5416131;26;20229;-72
2024/04/22 12:58:51;;;;;;;8.93;2.73;;;10.10;52.10;;;;;;5421678;26;20577;-73